Time;durP1;ratioP1;P1;durP2;ratioP2;P2;SDS_P1;SDS_P2;PMS_P1;PMS_P2;Temp;Humidity;BMP_temperature;BMP_pressure;BME280_temperature;BME280_humidity;BME280_pressure;Samples;Min_cycle;Max_cycle;Signal;HPM_P1;HPM_P2
2023/09/19 00:02:09;;;;;;;19.07;11.00;;;;;;;15.55;70.43;100749.98;1666543;86;21106;-68
2023/09/19 00:04:39;;;;;;;20.05;10.98;;;;;;;15.53;70.71;100751.58;1666349;86;21066;-70
2023/09/19 00:07:09;;;;;;;16.17;10.60;;;;;;;15.52;71.00;100743.52;1666687;86;21035;-69
2023/09/19 00:09:38;;;;;;;17.35;10.95;;;;;;;15.54;71.17;100753.81;1666618;86;21162;-69
2023/09/19 00:12:09;;;;;;;19.65;11.57;;;;;;;15.53;71.29;100758.48;1666620;86;21054;-69
2023/09/19 00:14:38;;;;;;;21.52;11.90;;;;;;;15.52;71.49;100755.95;1666726;86;21066;-69
2023/09/19 00:17:08;;;;;;;16.93;12.00;;;;;;;15.50;71.65;100757.55;1666625;86;21560;-69
2023/09/19 00:19:37;;;;;;;18.40;11.50;;;;;;;15.48;71.81;100752.78;1666691;86;21103;-69
2023/09/19 00:22:07;;;;;;;17.50;11.95;;;;;;;15.46;71.89;100750.78;1666432;86;21525;-69
2023/09/19 00:24:36;;;;;;;18.65;12.40;;;;;;;15.46;72.08;100752.16;1666544;86;21579;-68
2023/09/19 00:27:05;;;;;;;16.73;10.78;;;;;;;15.46;72.21;100752.16;1666384;86;21070;-68
2023/09/19 00:29:34;;;;;;;19.82;11.95;;;;;;;15.46;72.24;100755.45;1666699;85;21082;-68
2023/09/19 00:32:05;;;;;;;18.10;11.45;;;;;;;15.46;72.35;100752.16;1666646;86;21073;-69
2023/09/19 00:34:35;;;;;;;19.92;12.30;;;;;;;15.44;72.56;100756.20;1616252;88;21050;-69
2023/09/19 00:37:06;;;;;;;21.85;11.40;;;;;;;15.43;72.74;100758.13;1636442;86;21470;-69
2023/09/19 00:39:35;;;;;;;19.40;11.25;;;;;;;15.44;72.88;100746.55;1636432;88;21042;-67
2023/09/19 00:42:05;;;;;;;21.07;12.23;;;;;;;15.39;73.03;100752.73;1636196;86;21039;-69
2023/09/19 00:44:36;;;;;;;18.23;12.00;;;;;;;15.33;73.28;100748.09;1636401;88;21470;-68
2023/09/19 00:47:05;;;;;;;23.87;11.53;;;;;;;15.31;73.49;100751.60;1636545;86;21063;-68
2023/09/19 00:49:37;;;;;;;19.00;12.15;;;;;;;15.30;73.67;100749.91;1636301;88;21118;-69
2023/09/19 00:52:09;;;;;;;18.55;11.70;;;;;;;15.29;73.79;100754.27;1636491;86;21105;-68
2023/09/19 00:54:38;;;;;;;20.52;12.30;;;;;;;15.26;73.99;100752.80;1641545;86;21502;-70
2023/09/19 00:57:08;;;;;;;17.85;12.45;;;;;;;15.24;74.22;100750.79;1633388;87;21499;-68
2023/09/19 00:59:37;;;;;;;21.40;12.03;;;;;;;15.21;74.37;100753.98;1633440;87;21055;-70
2023/09/19 01:02:06;;;;;;;18.90;11.83;;;;;;;15.17;74.52;100752.73;1652198;86;21043;-70
2023/09/19 01:04:36;;;;;;;17.80;11.68;;;;;;;15.15;74.59;100748.81;1652067;87;21047;-68
2023/09/19 01:07:05;;;;;;;19.67;11.33;;;;;;;15.16;74.69;100747.75;1651908;86;21043;-70
2023/09/19 01:09:34;;;;;;;19.30;11.63;;;;;;;15.15;74.72;100747.44;1651912;86;21119;-68
2023/09/19 01:12:05;;;;;;;20.17;11.88;;;;;;;15.16;74.80;100749.66;1652100;86;21027;-69
2023/09/19 01:14:48;;;;;;;21.97;11.48;;;;;;;15.14;74.92;100747.12;1652004;87;21027;-69
2023/09/19 01:17:32;;;;;;;16.45;11.48;;;;;;;15.14;75.15;100740.75;1651908;86;21497;-69
2023/09/19 01:20:24;;;;;;;20.70;12.03;;;;;;;15.13;75.29;100736.30;1633683;87;21111;-69
2023/09/19 01:23:30;;;;;;;18.92;11.88;;;;;;;15.12;75.32;100747.03;1651986;86;21019;-68
2023/09/19 01:26:26;;;;;;;19.85;12.33;;;;;;;15.12;75.42;100742.89;1652005;86;21043;-68
2023/09/19 01:29:24;;;;;;;19.07;12.07;;;;;;;15.11;75.40;100741.19;1645697;87;21062;-68
2023/09/19 01:31:54;;;;;;;22.80;12.75;;;;;;;15.09;75.46;100736.42;1652017;87;21455;-69
2023/09/19 01:34:26;;;;;;;19.92;11.97;;;;;;;15.08;75.60;100737.48;1652193;86;21024;-67
2023/09/19 01:36:54;;;;;;;18.52;12.30;;;;;;;15.06;75.71;100732.72;1652218;87;21047;-68
2023/09/19 01:39:24;;;;;;;19.25;12.20;;;;;;;15.04;75.86;100737.08;1652179;86;21043;-69
2023/09/19 01:42:26;;;;;;;18.37;11.57;;;;;;;15.03;75.93;100738.14;1652315;86;21099;-70
2023/09/19 01:45:36;;;;;;;18.62;11.05;;;;;;;15.03;75.96;100736.77;1652135;87;21122;-70
2023/09/19 01:48:33;;;;;;;16.73;11.28;;;;;;;15.02;75.97;100733.69;1629023;88;21608;-68
2023/09/19 01:51:05;;;;;;;16.85;10.28;;;;;;;14.99;75.94;100735.51;1614781;88;21058;-67
2023/09/19 01:53:42;;;;;;;16.25;10.65;;;;;;;14.97;75.82;100731.28;1629085;88;21039;-68
2023/09/19 01:56:23;;;;;;;18.52;10.40;;;;;;;14.99;75.73;100730.52;1629162;88;21058;-68
2023/09/19 01:58:55;;;;;;;14.38;10.48;;;;;;;15.00;75.59;100727.55;1629156;88;21071;-68
2023/09/19 02:01:24;;;;;;;16.77;11.08;;;;;;;15.01;75.37;100729.77;1628950;87;21573;-69
2023/09/19 02:03:53;;;;;;;16.82;11.12;;;;;;;14.98;75.25;100728.30;1628991;87;21051;-68
2023/09/19 02:06:25;;;;;;;15.35;9.93;;;;;;;14.97;74.94;100732.13;1607954;88;21078;-68
2023/09/19 02:08:54;;;;;;;17.45;11.15;;;;;;;14.93;74.76;100724.47;1628984;88;21570;-68
2023/09/19 02:11:23;;;;;;;15.43;10.10;;;;;;;14.92;74.63;100718.10;1608132;88;21074;-69
2023/09/19 02:13:54;;;;;;;16.35;10.20;;;;;;;14.91;74.37;100721.92;1629087;87;21046;-68
2023/09/19 02:16:23;;;;;;;16.77;10.28;;;;;;;14.92;74.15;100719.48;1629012;87;21109;-68
2023/09/19 02:18:52;;;;;;;15.08;10.90;;;;;;;14.94;73.92;100709.60;1637478;87;21062;-68
2023/09/19 02:21:22;;;;;;;22.45;11.38;;;;;;;14.94;73.66;100709.60;1652178;86;21102;-68
2023/09/19 02:23:51;;;;;;;17.52;10.43;;;;;;;14.94;73.45;100706.84;1651989;87;21090;-69
2023/09/19 02:26:20;;;;;;;16.52;10.48;;;;;;;14.94;73.29;100706.84;1652070;86;21058;-69
2023/09/19 02:28:49;;;;;;;18.70;11.20;;;;;;;14.92;73.11;100702.92;1652126;86;21102;-69
2023/09/19 02:31:18;;;;;;;17.00;10.60;;;;;;;14.90;72.98;100707.81;1652252;87;21050;-69
2023/09/19 02:33:47;;;;;;;14.33;10.63;;;;;;;14.89;72.89;100709.73;1652216;86;21585;-68
2023/09/19 02:36:17;;;;;;;15.30;10.78;;;;;;;14.88;72.80;100701.67;1651971;87;21087;-70
2023/09/19 02:38:45;;;;;;;17.25;11.00;;;;;;;14.87;72.72;100704.97;1651933;86;21099;-68
2023/09/19 02:41:14;;;;;;;16.15;10.78;;;;;;;14.85;72.69;100700.20;1652118;87;21103;-68
2023/09/19 02:43:43;;;;;;;16.55;10.58;;;;;;;14.86;72.50;100699.13;1652005;87;21015;-69
2023/09/19 02:46:12;;;;;;;17.48;10.20;;;;;;;14.83;72.22;100694.05;1652264;86;21491;-68
2023/09/19 02:48:42;;;;;;;16.55;10.65;;;;;;;14.83;71.71;100688.53;1652071;86;21070;-68
2023/09/19 02:51:11;;;;;;;17.25;11.28;;;;;;;14.84;71.29;100691.60;1652265;87;21049;-69
2023/09/19 02:53:42;;;;;;;15.72;10.95;;;;;;;14.84;70.92;100686.09;1652167;86;21592;-69
2023/09/19 02:56:13;;;;;;;22.93;10.98;;;;;;;14.81;70.71;100685.67;1657333;86;21126;-68
2023/09/19 02:58:45;;;;;;;17.10;10.58;;;;;;;14.79;70.56;100681.76;1659528;86;21063;-69
2023/09/19 03:01:14;;;;;;;15.25;9.55;;;;;;;14.80;70.49;100682.61;1659665;85;21114;-69
2023/09/19 03:03:43;;;;;;;17.23;10.28;;;;;;;14.82;70.46;100691.52;1659543;86;21510;-69
2023/09/19 03:06:13;;;;;;;15.80;10.23;;;;;;;14.82;70.27;100677.72;1659760;86;21058;-68
2023/09/19 03:08:43;;;;;;;14.38;10.00;;;;;;;14.83;70.15;100678.03;1659739;86;21110;-68
2023/09/19 03:11:14;;;;;;;16.30;10.30;;;;;;;14.82;70.08;100676.34;1664940;86;21058;-68
2023/09/19 03:13:45;;;;;;;18.60;9.88;;;;;;;14.81;70.08;100676.02;1659986;85;21031;-68
2023/09/19 03:16:16;;;;;;;18.45;9.83;;;;;;;14.80;69.97;100682.08;1659705;85;21169;-68
2023/09/19 03:18:47;;;;;;;12.82;9.43;;;;;;;14.79;69.85;100674.86;1642875;86;21062;-68
2023/09/19 03:21:17;;;;;;;16.12;9.70;;;;;;;14.77;69.80;100670.09;1659746;86;21580;-68
2023/09/19 03:23:46;;;;;;;16.32;9.45;;;;;;;14.77;69.83;100666.49;1659639;85;21059;-68
2023/09/19 03:26:16;;;;;;;13.93;8.95;;;;;;;14.74;70.01;100671.91;1659590;86;21094;-69
2023/09/19 03:28:47;;;;;;;14.43;9.68;;;;;;;14.72;70.02;100664.92;1659789;85;21122;-67
2023/09/19 03:31:16;;;;;;;13.93;9.53;;;;;;;14.68;70.15;100668.65;1659579;86;21125;-69
2023/09/19 03:33:45;;;;;;;14.00;9.50;;;;;;;14.65;70.35;100664.95;1660002;86;21063;-68
2023/09/19 03:36:13;;;;;;;16.93;9.05;;;;;;;14.63;70.59;100662.09;1659593;85;21118;-69
2023/09/19 03:38:42;;;;;;;15.58;9.53;;;;;;;14.61;70.78;100665.06;1659701;86;21082;-69
2023/09/19 03:41:14;;;;;;;15.95;8.90;;;;;;;14.61;70.93;100665.60;1659690;85;21030;-68
2023/09/19 03:43:42;;;;;;;14.93;9.35;;;;;;;14.59;71.06;100665.81;1659779;86;21118;-68
2023/09/19 03:46:14;;;;;;;17.07;9.65;;;;;;;14.57;71.23;100663.81;1659747;86;21509;-68
2023/09/19 03:48:43;;;;;;;15.60;9.88;;;;;;;14.58;71.38;100672.40;1659706;86;21508;-69
2023/09/19 03:51:16;;;;;;;17.82;10.25;;;;;;;14.58;71.50;100671.02;1659834;86;21046;-69
2023/09/19 03:53:45;;;;;;;18.77;9.80;;;;;;;14.57;71.68;100660.52;1659800;86;21022;-68
2023/09/19 03:56:14;;;;;;;15.93;9.68;;;;;;;14.55;71.79;100659.05;1659491;85;21122;-68
2023/09/19 03:58:44;;;;;;;13.95;9.80;;;;;;;14.53;71.90;100666.69;1659547;85;21066;-69
2023/09/19 04:01:13;;;;;;;14.43;9.18;;;;;;;14.48;72.09;100663.73;1659507;86;21106;-70
2023/09/19 04:03:46;;;;;;;14.60;9.18;;;;;;;14.45;72.30;100658.13;1659568;86;21523;-69
2023/09/19 04:06:17;;;;;;;14.38;9.28;;;;;;;14.43;72.50;100658.88;1664948;86;21074;-69
2023/09/19 04:08:47;;;;;;;16.52;9.25;;;;;;;14.42;72.72;100660.44;1659449;86;21521;-69
2023/09/19 04:11:16;;;;;;;13.43;8.80;;;;;;;14.39;72.93;100658.95;1659735;86;21102;-68
2023/09/19 04:13:47;;;;;;;13.98;9.58;;;;;;;14.39;73.09;100662.25;1659639;86;21516;-69
2023/09/19 04:16:18;;;;;;;20.32;10.50;;;;;;;14.39;73.20;100663.09;1659716;86;21062;-67
2023/09/19 04:18:47;;;;;;;14.28;9.15;;;;;;;14.41;73.24;100654.61;1659605;86;21114;-68
2023/09/19 04:21:19;;;;;;;16.70;9.33;;;;;;;14.41;73.31;100666.48;1659681;86;21082;-69
2023/09/19 04:23:49;;;;;;;16.77;9.30;;;;;;;14.41;73.32;100665.63;1659551;86;21612;-69
2023/09/19 04:26:18;;;;;;;16.93;9.20;;;;;;;14.40;73.18;100659.27;1659772;86;21478;-70
2023/09/19 04:28:48;;;;;;;15.45;9.03;;;;;;;14.42;73.08;100654.92;1659718;85;21058;-68
2023/09/19 04:31:18;;;;;;;19.87;10.00;;;;;;;14.45;72.99;100655.90;1664841;86;21299;-68
2023/09/19 04:33:47;;;;;;;15.98;9.58;;;;;;;14.48;72.87;100655.47;1659562;86;21090;-69
2023/09/19 04:36:16;;;;;;;18.70;10.08;;;;;;;14.49;72.75;100655.78;1659535;86;21061;-69
2023/09/19 04:38:48;;;;;;;19.10;9.45;;;;;;;14.51;72.66;100656.41;1660134;86;21566;-68
2023/09/19 04:41:17;;;;;;;18.95;9.58;;;;;;;14.53;72.43;100658.42;1659550;86;21046;-70
2023/09/19 04:43:46;;;;;;;16.48;9.08;;;;;;;14.58;72.16;100664.13;1659568;86;21733;-70
2023/09/19 04:46:15;;;;;;;17.15;9.35;;;;;;;14.60;71.93;100659.23;1659494;86;21558;-69
2023/09/19 04:48:44;;;;;;;16.93;8.63;;;;;;;14.67;71.72;100656.45;1659458;86;21086;-70
2023/09/19 04:51:15;;;;;;;16.55;9.63;;;;;;;14.71;71.45;100659.09;1659805;86;21087;-69
2023/09/19 04:53:44;;;;;;;21.65;9.18;;;;;;;14.75;71.23;100652.92;1659802;86;21074;-69
2023/09/19 04:56:15;;;;;;;16.15;9.60;;;;;;;14.81;70.88;100651.19;1659522;85;21546;-69
2023/09/19 04:58:44;;;;;;;15.85;8.70;;;;;;;14.86;70.54;100652.77;1648835;84;21082;-69
2023/09/19 05:01:15;;;;;;;16.97;9.40;;;;;;;14.89;70.29;100646.80;1652144;86;21118;-70
2023/09/19 05:03:45;;;;;;;17.27;9.38;;;;;;;14.93;70.08;100646.67;1652219;86;21553;-68
2023/09/19 05:06:14;;;;;;;12.70;8.33;;;;;;;14.97;69.85;100652.63;1655514;86;21118;-70
2023/09/19 05:08:44;;;;;;;14.95;8.53;;;;;;;15.02;69.49;100650.91;1651952;86;21514;-69
2023/09/19 05:11:14;;;;;;;17.80;9.40;;;;;;;15.04;69.09;100646.01;1652043;86;21082;-68
2023/09/19 05:13:43;;;;;;;16.85;9.15;;;;;;;15.09;68.75;100642.59;1652195;86;21043;-68
2023/09/19 05:16:13;;;;;;;16.27;9.85;;;;;;;15.12;68.27;100640.77;1652087;87;21050;-69
2023/09/19 05:18:43;;;;;;;17.35;9.10;;;;;;;15.15;67.96;100638.94;1652004;87;21083;-69
2023/09/19 05:21:13;;;;;;;18.27;9.68;;;;;;;15.19;67.54;100644.33;1652108;87;21071;-70
2023/09/19 05:23:42;;;;;;;16.42;9.35;;;;;;;15.23;67.11;100645.04;1651964;87;21517;-71
2023/09/19 05:26:12;;;;;;;16.87;8.73;;;;;;;15.29;66.91;100644.69;1652337;87;21090;-68
2023/09/19 05:28:43;;;;;;;20.77;9.98;;;;;;;15.33;66.41;100640.41;1652051;86;21059;-69
2023/09/19 05:31:14;;;;;;;13.62;8.98;;;;;;;15.35;66.17;100645.17;1651955;87;21019;-68
2023/09/19 05:33:43;;;;;;;15.03;8.95;;;;;;;15.40;66.01;100643.97;1652160;86;21091;-71
2023/09/19 05:36:12;;;;;;;16.25;8.75;;;;;;;15.43;65.81;100647.66;1652054;87;21054;-70
2023/09/19 05:38:42;;;;;;;16.15;8.55;;;;;;;15.47;65.66;100638.39;1652045;86;21007;-69
2023/09/19 05:41:13;;;;;;;16.85;8.68;;;;;;;15.51;65.54;100640.48;1652078;86;21019;-70
2023/09/19 05:43:43;;;;;;;14.35;8.30;;;;;;;15.55;65.32;100637.59;1652343;87;21059;-68
2023/09/19 05:46:15;;;;;;;17.45;8.13;;;;;;;15.62;65.05;100645.03;1651985;87;21047;-70
2023/09/19 05:48:44;;;;;;;14.58;8.03;;;;;;;15.67;64.86;100643.29;1652027;86;21503;-69
2023/09/19 05:51:13;;;;;;;22.10;8.80;;;;;;;15.72;64.65;100646.22;1651916;87;21096;-69
2023/09/19 05:53:43;;;;;;;17.48;8.28;;;;;;;15.77;64.36;100643.63;1651967;86;21112;-69
2023/09/19 05:56:14;;;;;;;13.18;8.53;;;;;;;15.84;64.00;100643.03;1651964;87;21462;-69
2023/09/19 05:58:44;;;;;;;12.95;8.13;;;;;;;15.90;63.76;100650.95;1642901;87;21102;-69
2023/09/19 06:01:14;;;;;;;11.85;7.95;;;;;;;15.96;63.27;100646.44;1636227;86;21046;-69
2023/09/19 06:03:43;;;;;;;15.23;7.97;;;;;;;16.00;62.75;100641.61;1636381;88;21015;-69
2023/09/19 06:06:12;;;;;;;56.75;41.98;;;;;;;16.04;62.27;100644.23;1636372;88;21097;-69
2023/09/19 06:08:44;;;;;;;19.00;11.40;;;;;;;16.09;62.08;100647.16;1636253;86;21070;-68
2023/09/19 06:11:13;;;;;;;14.40;8.70;;;;;;;16.13;61.84;100644.24;1636419;86;21067;-69
2023/09/19 06:13:43;;;;;;;19.77;8.70;;;;;;;16.17;61.88;100643.25;1636559;86;21018;-69
2023/09/19 06:16:11;;;;;;;14.45;7.95;;;;;;;16.21;61.70;100644.48;1636397;86;21026;-69
2023/09/19 06:18:41;;;;;;;15.90;8.23;;;;;;;16.25;61.66;100637.95;1636230;86;21071;-69
2023/09/19 06:21:09;;;;;;;11.75;7.97;;;;;;;16.29;61.48;100637.84;1636232;86;21034;-69
2023/09/19 06:23:38;;;;;;;19.20;8.60;;;;;;;16.31;61.30;100646.21;1636224;88;21006;-70
2023/09/19 06:26:08;;;;;;;15.60;8.05;;;;;;;16.34;61.35;100640.22;1616367;88;21507;-69
2023/09/19 06:28:37;;;;;;;13.58;8.60;;;;;;;16.37;61.36;100645.29;1636369;87;21627;-70
2023/09/19 06:31:09;;;;;;;14.45;7.97;;;;;;;16.41;61.36;100638.22;1636413;88;21054;-70
2023/09/19 06:33:39;;;;;;;15.50;8.05;;;;;;;16.45;61.34;100638.07;1636245;88;21119;-70
2023/09/19 06:36:09;;;;;;;14.93;8.35;;;;;;;16.48;61.37;100645.91;1636425;88;21050;-70
2023/09/19 06:38:39;;;;;;;16.65;9.05;;;;;;;16.52;61.42;100640.76;1636349;88;21099;-71
2023/09/19 06:41:08;;;;;;;12.88;7.70;;;;;;;16.58;61.49;100645.37;1636435;88;21189;-71
2023/09/19 06:43:37;;;;;;;15.00;8.13;;;;;;;16.62;61.34;100639.68;1636263;87;21416;-70
2023/09/19 06:46:07;;;;;;;12.53;7.62;;;;;;;16.67;61.22;100639.86;1636433;88;21075;-70
2023/09/19 06:48:36;;;;;;;11.10;7.30;;;;;;;16.73;61.13;100645.00;1636159;87;21136;-69
2023/09/19 06:51:07;;;;;;;15.35;7.40;;;;;;;16.78;60.99;100645.16;1636366;87;21470;-71
2023/09/19 06:53:37;;;;;;;12.00;7.53;;;;;;;16.83;60.85;100637.53;1636490;86;21042;-69
2023/09/19 06:56:07;;;;;;;10.20;7.37;;;;;;;16.87;60.76;100642.38;1636566;88;21165;-69
2023/09/19 06:58:37;;;;;;;11.10;6.85;;;;;;;16.92;60.72;100635.62;1634488;84;21070;-71
2023/09/19 07:01:06;;;;;;;12.53;7.92;;;;;;;16.98;60.74;100636.61;1631996;88;21042;-70
2023/09/19 07:03:36;;;;;;;14.28;7.65;;;;;;;17.03;60.78;100643.67;1631799;88;21118;-70
2023/09/19 07:06:05;;;;;;;12.58;7.20;;;;;;;17.08;60.83;100635.52;1631809;88;21528;-70
2023/09/19 07:08:35;;;;;;;12.40;7.62;;;;;;;17.15;60.92;100643.73;1631995;88;21066;-70
2023/09/19 07:11:06;;;;;;;10.08;7.45;;;;;;;17.20;60.96;100632.25;1631916;87;21111;-70
2023/09/19 07:13:35;;;;;;;12.47;7.15;;;;;;;17.29;60.99;100643.30;1631946;88;21062;-68
2023/09/19 07:16:05;;;;;;;13.90;7.58;;;;;;;17.37;61.10;100646.27;1631956;87;21054;-69
2023/09/19 07:18:34;;;;;;;11.20;7.70;;;;;;;17.46;61.20;100641.23;1632160;88;21079;-68
2023/09/19 07:21:04;;;;;;;12.23;7.65;;;;;;;17.56;61.28;100637.37;1631764;88;21460;-70
2023/09/19 07:23:42;;;;;;;11.28;7.15;;;;;;;17.64;61.31;100634.25;1631794;87;21080;-68
2023/09/19 07:26:17;;;;;;;13.65;7.85;;;;;;;17.74;61.29;100634.55;1631909;88;21322;-70
2023/09/19 07:28:46;;;;;;;12.60;7.47;;;;;;;17.83;61.25;100628.95;1613472;88;21074;-69
2023/09/19 07:31:16;;;;;;;10.15;7.10;;;;;;;17.91;61.31;100628.59;1631761;86;21046;-69
2023/09/19 07:33:46;;;;;;;9.35;7.20;;;;;;;18.02;61.36;100631.91;1631932;87;21507;-70
2023/09/19 07:36:16;;;;;;;10.82;6.92;;;;;;;18.12;61.34;100626.30;1631938;88;21063;-68
2023/09/19 07:38:45;;;;;;;13.70;6.72;;;;;;;18.24;61.38;100632.71;1631977;88;21110;-69
2023/09/19 07:41:15;;;;;;;9.38;7.15;;;;;;;18.32;61.38;100621.24;1631919;88;21066;-69
2023/09/19 07:43:45;;;;;;;11.53;8.20;;;;;;;18.42;61.44;100617.31;1631967;87;21046;-70
2023/09/19 07:46:14;;;;;;;11.80;7.45;;;;;;;18.54;61.39;100621.45;1631891;87;21046;-69
2023/09/19 07:48:47;;;;;;;11.33;7.20;;;;;;;18.73;61.42;100620.22;1631748;87;21129;-69
2023/09/19 07:51:15;;;;;;;11.55;6.80;;;;;;;19.23;60.83;100619.02;1628457;86;21076;-71
2023/09/19 07:53:44;;;;;;;7.00;5.90;;;;;;;19.87;59.55;100619.63;1625541;88;21109;-70
2023/09/19 07:56:13;;;;;;;8.80;6.10;;;;;;;20.56;57.67;100603.43;1605492;89;21095;-70
2023/09/19 07:58:45;;;;;;;7.72;5.60;;;;;;;21.20;56.13;100600.02;1624020;88;21164;-71
2023/09/19 08:01:16;;;;;;;7.92;5.53;;;;;;;21.80;54.13;100598.39;1600069;89;21083;-72
2023/09/19 08:03:45;;;;;;;9.35;5.50;;;;;;;22.47;52.27;100589.94;1548940;92;21104;-72
2023/09/19 08:06:14;;;;;;;10.15;5.62;;;;;;;23.04;50.99;100578.75;1552086;92;21104;-70
2023/09/19 08:08:43;;;;;;;8.70;5.03;;;;;;;23.59;49.17;100581.39;1539001;92;21176;-71
2023/09/19 08:11:12;;;;;;;11.70;5.42;;;;;;;24.11;47.47;100572.41;1599350;90;21045;-70
2023/09/19 08:13:43;;;;;;;6.62;4.90;;;;;;;24.57;46.03;100559.13;1599257;90;21033;-71
2023/09/19 08:16:11;;;;;;;9.40;4.70;;;;;;;25.03;44.30;100564.55;1599170;88;21133;-71
2023/09/19 08:18:40;;;;;;;15.40;6.33;;;;;;;25.39;42.77;100560.39;1599301;90;21864;-71
2023/09/19 08:21:11;;;;;;;7.40;4.40;;;;;;;25.72;41.44;100548.08;1599382;88;21105;-71
2023/09/19 08:23:39;;;;;;;7.87;4.22;;;;;;;25.94;39.99;100558.25;1579238;90;21485;-72
2023/09/19 08:26:09;;;;;;;6.53;4.12;;;;;;;26.18;39.10;100554.94;1592513;90;21102;-70
2023/09/19 08:28:42;;;;;;;7.30;4.30;;;;;;;26.44;37.70;100554.67;1624039;87;21479;-72
2023/09/19 08:31:11;;;;;;;10.70;4.28;;;;;;;26.67;36.96;100546.81;1620619;88;21128;-71
2023/09/19 08:33:40;;;;;;;10.55;3.95;;;;;;;26.84;36.31;100542.92;1611210;89;21025;-72
2023/09/19 08:36:10;;;;;;;5.95;4.05;;;;;;;27.06;35.59;100541.52;1593876;90;21071;-72
2023/09/19 08:38:39;;;;;;;7.17;3.58;;;;;;;27.27;35.03;100528.80;1611176;89;21037;-72
2023/09/19 08:41:08;;;;;;;21.62;3.98;;;;;;;27.43;33.88;100541.52;1593790;90;21103;-73
2023/09/19 08:43:37;;;;;;;10.13;4.22;;;;;;;27.46;31.86;100538.08;1611204;89;21068;-72
2023/09/19 08:46:18;;;;;;;7.37;3.58;;;;;;;27.33;31.21;100532.41;1593805;90;21531;-71
2023/09/19 08:48:52;;;;;;;7.67;3.35;;;;;;;27.04;31.18;100539.00;1611543;89;21088;-72
2023/09/19 08:51:44;;;;;;;9.48;3.70;;;;;;;26.79;31.42;100545.80;1593590;90;21119;-72
2023/09/19 08:54:29;;;;;;;15.30;4.10;;;;;;;26.53;31.21;100533.20;1611376;89;21080;-71
2023/09/19 08:57:02;;;;;;;11.33;3.80;;;;;;;26.15;31.96;100525.20;1593634;89;21087;-70
2023/09/19 08:59:31;;;;;;;8.30;3.62;;;;;;;25.94;32.20;100527.37;1635803;86;21489;-72
2023/09/19 09:02:00;;;;;;;8.35;3.83;;;;;;;25.68;31.81;100520.34;1661811;85;21439;-71
2023/09/19 09:04:30;;;;;;;9.15;3.60;;;;;;;25.39;32.56;100525.89;1661909;86;21151;-73
2023/09/19 09:07:00;;;;;;;9.25;3.65;;;;;;;25.11;32.93;100523.27;1661923;86;21085;-71
2023/09/19 09:09:30;;;;;;;6.30;3.60;;;;;;;24.92;32.67;100504.87;1646485;87;21130;-72
2023/09/19 09:11:58;;;;;;;7.50;3.85;;;;;;;24.77;32.79;100514.78;1661348;86;21028;-71
2023/09/19 09:14:27;;;;;;;8.58;3.62;;;;;;;24.65;32.77;100517.33;1661237;85;21074;-73
2023/09/19 09:16:58;;;;;;;8.23;3.72;;;;;;;24.56;33.30;100512.62;1661505;86;21234;-71
2023/09/19 09:19:27;;;;;;;11.50;5.08;;;;;;;24.52;33.24;100510.12;1661563;86;21055;-71
2023/09/19 09:22:10;;;;;;;6.50;3.70;;;;;;;24.43;33.27;100507.08;1661547;86;21490;-71
2023/09/19 09:25:05;;;;;;;9.65;3.98;;;;;;;24.34;32.84;100513.84;1661548;85;21047;-71
2023/09/19 09:27:34;;;;;;;8.30;3.37;;;;;;;24.26;32.77;100518.59;1642670;86;21091;-71
2023/09/19 09:30:03;;;;;;;9.10;3.67;;;;;;;24.22;33.11;100502.09;1661431;86;21075;-71
2023/09/19 09:32:36;;;;;;;9.30;3.80;;;;;;;24.21;33.34;100506.02;1661520;86;21046;-72
2023/09/19 09:35:09;;;;;;;14.25;4.00;;;;;;;24.22;33.16;100506.86;1661549;86;21498;-69
2023/09/19 09:37:38;;;;;;;5.92;3.35;;;;;;;24.19;33.40;100492.86;1661251;85;21126;-71
2023/09/19 09:40:19;;;;;;;6.80;3.22;;;;;;;24.19;33.42;100491.46;1661373;85;21736;-72
2023/09/19 09:42:49;;;;;;;7.83;3.30;;;;;;;24.21;33.68;100492.02;1661044;85;21036;-71
2023/09/19 09:45:28;;;;;;;7.20;3.47;;;;;;;24.25;33.84;100479.12;1661264;85;21107;-70
2023/09/19 09:47:56;;;;;;;10.72;3.67;;;;;;;24.30;33.82;100483.89;1661357;86;21477;-72
2023/09/19 09:50:55;;;;;;;6.30;3.42;;;;;;;24.30;33.77;100488.92;1661466;86;21011;-71
2023/09/19 09:53:32;;;;;;;6.87;3.37;;;;;;;24.32;33.31;100489.48;1661148;86;21116;-72
2023/09/19 09:56:06;;;;;;;9.23;3.47;;;;;;;24.30;33.34;100484.73;1637937;86;21047;-71
2023/09/19 09:58:40;;;;;;;7.33;3.87;;;;;;;24.29;33.55;100481.65;1661454;86;21098;-71
2023/09/19 10:01:09;;;;;;;10.50;4.12;;;;;;;24.29;33.56;100483.05;1662364;86;21051;-71
2023/09/19 10:03:40;;;;;;;4.97;3.22;;;;;;;24.30;33.60;100466.52;1667128;86;21524;-70
2023/09/19 10:09:14;;;;;;;7.03;3.33;;;;;;;24.33;33.72;100470.15;1641692;87;21241;-69
2023/09/19 10:11:56;;;;;;;6.80;3.40;;;;;;;24.32;33.40;100476.88;1641866;87;21550;-69
2023/09/19 10:14:24;;;;;;;5.67;3.15;;;;;;;24.31;33.51;100475.77;1641581;86;21072;-75
2023/09/19 10:16:55;;;;;;;5.33;3.60;;;;;;;24.32;33.69;100467.64;1641749;86;21032;-70
2023/09/19 10:19:40;;;;;;;6.92;3.80;;;;;;;24.34;33.93;100469.02;1672016;86;21110;-74
2023/09/19 10:22:10;;;;;;;8.88;3.70;;;;;;;24.36;33.97;100470.70;1641838;87;21066;-72
2023/09/19 10:24:38;;;;;;;5.08;3.45;;;;;;;24.37;33.57;100462.58;1667239;86;21528;-72
2023/09/19 10:27:09;;;;;;;7.65;3.80;;;;;;;24.33;33.73;100468.75;1638429;85;21504;-74
2023/09/19 10:29:39;;;;;;;5.72;3.35;;;;;;;24.31;33.98;100468.77;1641524;85;21135;-72
2023/09/19 10:32:08;;;;;;;5.80;3.47;;;;;;;24.31;34.15;100462.59;1641760;87;21506;-75
2023/09/19 10:34:41;;;;;;;4.22;3.33;;;;;;;24.32;34.10;100453.07;1672088;86;21078;-73
2023/09/19 10:37:09;;;;;;;9.13;3.70;;;;;;;24.32;34.29;100450.27;1641624;86;21088;-73
2023/09/19 10:39:38;;;;;;;8.08;3.70;;;;;;;24.35;33.88;100440.45;1672156;86;21090;-74
2023/09/19 10:42:08;;;;;;;11.80;3.75;;;;;;;24.37;33.70;100441.00;1672102;86;21054;-74
2023/09/19 10:44:44;;;;;;;15.80;3.98;;;;;;;24.35;34.49;100443.25;1672145;86;21082;-74
2023/09/19 10:47:14;;;;;;;8.58;3.60;;;;;;;24.32;34.00;100439.06;1672002;86;21042;-75
2023/09/19 10:49:46;;;;;;;6.87;3.65;;;;;;;24.32;33.70;100436.27;1644545;86;21177;-73
2023/09/19 10:52:19;;;;;;;7.22;3.50;;;;;;;24.33;33.59;100437.10;1672168;86;21058;-73
2023/09/19 10:54:52;;;;;;;7.60;3.33;;;;;;;24.37;33.44;100429.80;1672370;86;21109;-75
2023/09/19 10:57:23;;;;;;;8.38;3.92;;;;;;;24.41;33.80;100426.70;1672278;86;21066;-74
2023/09/19 11:00:26;;;;;;;6.03;3.70;;;;;;;24.43;33.88;100418.84;1648208;83;21561;-73
2023/09/19 11:03:18;;;;;;;5.22;3.52;;;;;;;24.46;33.72;100421.06;1678156;84;21474;-75
2023/09/19 11:06:09;;;;;;;8.33;3.70;;;;;;;24.50;33.68;100420.76;1678381;85;21039;-73
2023/09/19 11:11:57;;;;;;;8.10;4.53;;;;;;;24.55;33.18;100410.92;1678486;85;21094;-81
2023/09/19 11:14:30;;;;;;;8.45;4.08;;;;;;;24.54;33.56;100412.61;1655800;85;21082;-78
2023/09/19 11:17:15;;;;;;;4.97;3.60;;;;;;;24.53;33.02;100415.14;1678241;84;21552;-80
2023/09/19 11:22:58;;;;;;;5.90;3.77;;;;;;;24.49;33.48;100402.84;1678355;84;21095;-82
2023/09/19 11:25:47;;;;;;;6.75;3.58;;;;;;;24.47;33.45;100397.53;1678261;85;21114;-80
2023/09/19 11:28:19;;;;;;;6.37;3.20;;;;;;;24.47;33.29;100389.69;1678190;85;21122;-81
2023/09/19 11:30:53;;;;;;;8.40;3.40;;;;;;;24.48;33.01;100391.36;1678294;85;21070;-82
2023/09/19 11:33:33;;;;;;;7.92;3.30;;;;;;;24.47;32.23;100382.12;1678054;84;21067;-81
2023/09/19 11:36:05;;;;;;;9.45;4.10;;;;;;;24.49;31.91;100387.43;1678248;84;21482;-83
2023/09/19 11:38:49;;;;;;;8.63;3.17;;;;;;;24.48;32.11;100389.96;1678178;85;21094;-80
2023/09/19 11:41:27;;;;;;;6.72;3.10;;;;;;;24.51;32.16;100385.17;1678147;85;21114;-79
2023/09/19 11:44:16;;;;;;;8.75;3.40;;;;;;;24.54;32.00;100381.80;1678265;85;21585;-79
2023/09/19 11:46:55;;;;;;;6.37;3.80;;;;;;;24.60;32.21;100370.82;1678110;84;21100;-78
2023/09/19 11:49:32;;;;;;;8.63;3.45;;;;;;;24.61;32.43;100370.53;1678175;85;21106;-77